createdAt,value
2016-03-15T00:00:11.417Z,4.8
2016-03-15T00:01:11.404Z,4.86
2016-03-15T00:02:11.250Z,4.84
2016-03-15T00:03:11.409Z,4.97
2016-03-15T00:04:11.474Z,4.94
2016-03-15T00:05:11.400Z,4.89
2016-03-15T00:06:11.402Z,4.85
2016-03-15T00:07:11.394Z,4.85
2016-03-15T00:08:11.396Z,4.82
2016-03-15T00:09:11.399Z,4.86
2016-03-15T00:10:11.386Z,4.84
2016-03-15T00:11:11.404Z,4.8
2016-03-15T00:12:11.392Z,4.85
2016-03-15T00:13:11.410Z,4.8
2016-03-15T00:14:11.382Z,4.84
2016-03-15T00:15:11.368Z,4.86
2016-03-15T00:16:11.371Z,4.82
2016-03-15T00:17:11.390Z,4.82
2016-03-15T00:18:11.393Z,4.84
2016-03-15T00:19:11.379Z,4.84
2016-03-15T00:20:11.367Z,4.85
2016-03-15T00:21:11.384Z,4.86
2016-03-15T00:22:11.403Z,4.8
2016-03-15T00:23:11.375Z,4.84
2016-03-15T00:24:11.377Z,4.85
2016-03-15T00:25:11.365Z,4.8
2016-03-15T00:26:11.383Z,4.84
2016-03-15T00:27:11.369Z,4.82
2016-03-15T00:28:11.372Z,4.8
2016-03-15T00:29:11.359Z,4.82
2016-03-15T00:30:11.206Z,4.85
2016-03-15T00:31:11.381Z,4.91
2016-03-15T00:32:11.383Z,4.86
2016-03-15T00:33:11.355Z,4.85
2016-03-15T00:34:11.358Z,4.8
2016-03-15T00:35:11.423Z,4.85
2016-03-15T00:36:11.192Z,4.88
2016-03-15T00:37:11.351Z,4.85
2016-03-15T00:38:11.353Z,4.85
2016-03-15T00:39:11.372Z,4.88
2016-03-15T00:40:11.342Z,4.91
2016-03-15T00:41:11.345Z,4.85
2016-03-15T00:42:11.348Z,4.8
2016-03-15T00:43:11.336Z,4.91
2016-03-15T00:44:11.354Z,4.92
2016-03-15T00:45:11.356Z,4.89
2016-03-15T00:46:11.344Z,4.91
2016-03-15T00:47:11.330Z,4.94
2016-03-15T00:48:11.349Z,4.92
2016-03-15T00:49:11.335Z,4.92
2016-03-15T00:50:11.339Z,4.94
2016-03-15T00:51:11.358Z,4.97
2016-03-15T00:52:11.328Z,4.99
2016-03-15T00:53:11.331Z,5
2016-03-15T00:54:11.333Z,4.94
2016-03-15T00:55:11.336Z,4.94
2016-03-15T00:56:11.324Z,4.96
2016-03-15T00:57:11.316Z,4.99
2016-03-15T00:58:11.318Z,4.99
2016-03-15T00:59:11.337Z,4.97
2016-03-15T01:00:11.339Z,4.96
2016-03-15T01:01:11.326Z,4.97
2016-03-15T01:02:11.328Z,5
2016-03-15T01:03:11.317Z,4.97
2016-03-15T01:04:11.334Z,4.91
2016-03-15T01:05:11.322Z,4.97
2016-03-15T01:06:11.324Z,4.97
2016-03-15T01:07:11.311Z,4.88
2016-03-15T01:08:11.314Z,4.96
2016-03-15T01:09:11.301Z,4.92
2016-03-15T01:10:11.319Z,4.99
2016-03-15T01:11:11.306Z,5.02
2016-03-15T01:12:11.294Z,4.92
2016-03-15T01:13:11.327Z,4.88
2016-03-15T01:14:11.299Z,4.94
2016-03-15T01:15:11.302Z,4.85
2016-03-15T01:16:11.304Z,4.82
2016-03-15T01:17:11.307Z,4.82
2016-03-15T01:18:11.294Z,4.85
2016-03-15T01:19:11.296Z,4.85
2016-03-15T01:20:11.299Z,4.85
2016-03-15T01:21:11.318Z,4.85
2016-03-15T01:22:11.305Z,4.8
2016-03-15T01:23:11.291Z,4.88
2016-03-15T01:24:11.294Z,4.88
2016-03-15T01:25:11.297Z,4.86
2016-03-15T01:26:11.299Z,4.88
2016-03-15T01:27:11.287Z,4.78
2016-03-15T01:28:11.290Z,4.91
2016-03-15T01:29:11.292Z,4.77
2016-03-15T01:30:11.295Z,4.86
2016-03-15T01:31:11.282Z,4.84
2016-03-15T01:32:11.300Z,4.8
2016-03-15T01:33:11.287Z,4.8
2016-03-15T01:34:11.275Z,4.85
2016-03-15T01:35:11.292Z,4.84
2016-03-15T01:36:11.265Z,4.84
2016-03-15T01:37:11.298Z,4.82
2016-03-15T01:38:11.285Z,4.88
2016-03-15T01:39:11.289Z,4.86
2016-03-15T01:40:11.275Z,4.89
2016-03-15T01:41:11.277Z,4.85
2016-03-15T01:42:11.281Z,4.84
2016-03-15T01:43:11.252Z,4.84
2016-03-15T01:44:11.270Z,4.85
2016-03-15T01:45:11.257Z,4.89
2016-03-15T01:46:11.260Z,4.84
2016-03-15T01:47:11.262Z,4.91
2016-03-15T01:48:11.266Z,4.8
2016-03-15T01:49:11.252Z,4.86
2016-03-15T01:50:11.254Z,4.89
2016-03-15T01:51:11.258Z,4.84
2016-03-15T01:52:11.244Z,4.92
2016-03-15T01:53:11.263Z,4.84
2016-03-15T01:54:11.266Z,4.82
2016-03-15T01:55:11.252Z,4.85
2016-03-15T01:56:11.240Z,4.84
2016-03-15T01:57:11.243Z,4.82
2016-03-15T01:58:11.260Z,4.92
2016-03-15T01:59:11.248Z,4.86
2016-03-15T02:00:11.251Z,4.82
2016-03-15T02:01:11.238Z,4.89
2016-03-15T02:02:11.256Z,4.8
2016-03-15T02:03:11.242Z,4.82
2016-03-15T02:04:11.246Z,4.8
2016-03-15T02:05:11.233Z,4.84
2016-03-15T02:06:11.236Z,4.82
2016-03-15T02:07:11.238Z,4.77
2016-03-15T02:08:11.241Z,4.77
2016-03-15T02:09:11.228Z,4.8
2016-03-15T02:10:11.247Z,4.77
2016-03-15T02:11:11.217Z,4.8
2016-03-15T02:12:11.252Z,4.78
2016-03-15T02:13:11.223Z,4.77
2016-03-15T02:14:10.475Z,4.69
2016-03-15T02:15:11.213Z,4.72
2016-03-15T02:16:11.216Z,4.66
2016-03-15T02:17:11.218Z,4.7
2016-03-15T02:18:11.205Z,4.67
2016-03-15T02:19:11.208Z,4.65
2016-03-15T02:20:11.211Z,4.67
2016-03-15T02:21:11.198Z,4.7
2016-03-15T02:22:11.200Z,4.59
2016-03-15T02:23:11.203Z,4.66
2016-03-15T02:24:11.205Z,4.6
2016-03-15T02:25:11.208Z,4.52
2016-03-15T02:26:11.211Z,4.6
2016-03-15T02:27:11.198Z,4.51
2016-03-15T02:28:11.201Z,4.42
2016-03-15T02:29:11.203Z,4.42
2016-03-15T02:30:11.190Z,4.45
2016-03-15T02:31:11.193Z,4.44
2016-03-15T02:32:11.180Z,4.52
2016-03-15T02:33:11.183Z,4.36
2016-03-15T02:34:11.186Z,4.29
2016-03-15T02:35:11.189Z,4.26
2016-03-15T02:36:11.176Z,4.27
2016-03-15T02:37:11.179Z,4.12
2016-03-15T02:38:11.181Z,4.15
2016-03-15T02:39:11.168Z,4.2
2016-03-15T02:40:11.186Z,4.18
2016-03-15T02:41:11.189Z,4.18
2016-03-15T02:42:11.175Z,4.16
2016-03-15T02:43:11.147Z,4.14
2016-03-15T02:44:11.166Z,4.18
2016-03-15T02:45:11.168Z,4.15
2016-03-15T02:46:11.156Z,4.11
2016-03-15T02:47:11.174Z,3.98
2016-03-15T02:48:11.145Z,3.97
2016-03-15T02:49:11.164Z,3.98
2016-03-15T02:50:11.135Z,4.04
2016-03-15T02:51:11.153Z,3.94
2016-03-15T02:52:11.140Z,3.9
2016-03-15T02:53:11.143Z,3.98
2016-03-15T02:54:11.146Z,3.98
2016-03-15T02:55:11.133Z,3.96
2016-03-15T02:56:11.167Z,3.91
2016-03-15T02:57:11.123Z,3.94
2016-03-15T02:58:11.126Z,3.91
2016-03-15T02:59:11.128Z,3.84
2016-03-15T03:00:11.131Z,3.8
2016-03-15T03:01:11.134Z,3.83
2016-03-15T03:02:11.120Z,3.84
2016-03-15T03:03:11.107Z,3.73
2016-03-15T03:04:11.109Z,3.79
2016-03-15T03:05:11.097Z,3.75
2016-03-15T03:06:11.131Z,3.73
2016-03-15T03:07:11.118Z,3.68
2016-03-15T03:08:11.105Z,3.83
2016-03-15T03:09:11.093Z,3.68
2016-03-15T03:10:11.095Z,3.75
2016-03-15T03:11:11.082Z,3.76
2016-03-15T03:12:11.084Z,3.69
2016-03-15T03:13:11.134Z,3.69
2016-03-15T03:14:11.090Z,3.66
2016-03-15T03:15:11.108Z,3.7
2016-03-15T03:16:11.064Z,3.66
2016-03-15T03:17:11.066Z,3.68
2016-03-15T03:18:11.069Z,3.65
2016-03-15T03:19:11.057Z,3.69
2016-03-15T03:20:11.074Z,3.68
2016-03-15T03:21:11.078Z,3.6
2016-03-15T03:22:11.066Z,3.72
2016-03-15T03:23:11.052Z,3.72
2016-03-15T03:24:11.055Z,3.57
2016-03-15T03:25:11.089Z,3.54
2016-03-15T03:26:11.044Z,3.6
2016-03-15T03:27:11.047Z,3.6
2016-03-15T03:28:11.034Z,3.6
2016-03-15T03:29:11.068Z,3.52
2016-03-15T03:30:11.040Z,3.55
2016-03-15T03:31:11.058Z,3.48
2016-03-15T03:32:11.029Z,3.48
2016-03-15T03:33:11.062Z,3.47
2016-03-15T03:34:11.035Z,3.43
2016-03-15T03:35:11.037Z,3.42
2016-03-15T03:36:11.024Z,3.43
2016-03-15T03:37:11.027Z,3.47
2016-03-15T03:38:11.076Z,3.39
2016-03-15T03:39:11.032Z,3.35
2016-03-15T03:40:11.020Z,3.36
2016-03-15T03:41:11.069Z,3.29
2016-03-15T03:42:11.119Z,3.29
2016-03-15T03:43:10.996Z,3.29
2016-03-15T03:44:11.030Z,3.29
2016-03-15T03:45:11.002Z,3.23
2016-03-15T03:46:11.005Z,3.28
2016-03-15T03:47:10.991Z,3.29
2016-03-15T03:48:10.869Z,3.21
2016-03-15T03:49:10.966Z,3.23
2016-03-15T03:50:10.999Z,3.2
2016-03-15T03:51:10.971Z,3.28
2016-03-15T03:52:10.974Z,3.17
2016-03-15T03:53:10.977Z,3.17
2016-03-15T03:54:10.963Z,3.18
2016-03-15T03:55:10.966Z,2.96
2016-03-15T03:56:10.937Z,3.11
2016-03-15T03:57:10.941Z,3.05
2016-03-15T03:58:10.943Z,3.02
2016-03-15T03:59:10.945Z,3.03
2016-03-15T04:00:10.933Z,3.03
2016-03-15T04:01:10.920Z,3.03
2016-03-15T04:02:10.938Z,2.99
2016-03-15T04:03:10.926Z,3.08
2016-03-15T04:04:11.021Z,2.95
2016-03-15T04:05:10.899Z,2.93
2016-03-15T04:06:10.933Z,2.93
2016-03-15T04:07:10.904Z,2.93
2016-03-15T04:08:10.906Z,2.84
2016-03-15T04:09:11.004Z,2.84
2016-03-15T04:10:10.897Z,2.79
2016-03-15T04:11:10.884Z,2.79
2016-03-15T04:12:10.887Z,2.78
2016-03-15T04:13:10.905Z,2.78
2016-03-15T04:14:10.876Z,2.79
2016-03-15T04:15:10.879Z,2.78
2016-03-15T04:16:10.881Z,2.77
2016-03-15T04:17:10.869Z,2.75
2016-03-15T04:18:10.872Z,2.74
2016-03-15T04:19:10.843Z,2.72
2016-03-15T04:20:10.972Z,2.63
2016-03-15T04:21:10.853Z,2.63
2016-03-15T04:22:10.840Z,2.57
2016-03-15T04:23:10.843Z,2.66
2016-03-15T04:24:10.846Z,2.71
2016-03-15T04:25:10.833Z,2.6
2016-03-15T04:26:10.835Z,2.63
2016-03-15T04:27:10.823Z,2.61
2016-03-15T04:28:10.825Z,2.64
2016-03-15T04:29:10.813Z,2.61
2016-03-15T04:30:10.815Z,2.59
2016-03-15T04:31:10.817Z,2.63
2016-03-15T04:32:10.805Z,2.59
2016-03-15T04:33:10.839Z,2.64
2016-03-15T04:34:10.795Z,2.64
2016-03-15T04:35:10.786Z,2.57
2016-03-15T04:36:10.788Z,2.57
2016-03-15T04:37:10.852Z,2.46
2016-03-15T04:38:10.778Z,2.59
2016-03-15T04:39:10.780Z,2.57
2016-03-15T04:40:10.783Z,2.45
2016-03-15T04:41:10.771Z,2.53
2016-03-15T04:42:10.773Z,2.45
2016-03-15T04:43:10.760Z,2.45
2016-03-15T04:44:10.763Z,2.52
2016-03-15T04:45:10.859Z,2.45
2016-03-15T04:46:10.752Z,2.48
2016-03-15T04:47:10.740Z,2.41
2016-03-15T04:48:10.757Z,2.39
2016-03-15T04:49:10.730Z,2.42
2016-03-15T04:50:10.732Z,2.46
2016-03-15T04:51:10.719Z,2.43
2016-03-15T04:52:10.723Z,2.45
2016-03-15T04:53:10.787Z,2.39
2016-03-15T04:54:10.711Z,2.35
2016-03-15T04:55:10.698Z,2.43
2016-03-15T04:56:10.717Z,2.31
2016-03-15T04:57:10.703Z,2.35
2016-03-15T04:58:10.707Z,2.36
2016-03-15T04:59:10.694Z,2.39
2016-03-15T05:00:10.680Z,2.42
2016-03-15T05:01:10.684Z,2.3
2016-03-15T05:02:10.670Z,2.31
2016-03-15T05:03:11.204Z,2.28
2016-03-15T05:04:10.255Z,2.34
2016-03-15T05:05:11.053Z,2.28
2016-03-15T05:06:10.916Z,2.31
2016-03-15T05:07:10.794Z,2.3
2016-03-15T05:08:10.780Z,2.25
2016-03-15T05:09:13.768Z,2.28
2016-03-15T05:10:10.771Z,2.28
2016-03-15T05:11:10.663Z,2.31
2016-03-15T05:12:10.713Z,2.18
2016-03-15T05:13:10.763Z,2.31
2016-03-15T05:14:10.796Z,2.23
2016-03-15T05:15:19.705Z,2.25
2016-03-15T05:16:10.708Z,2.23
2016-03-15T05:17:10.742Z,2.17
2016-03-15T05:18:10.682Z,2.17
2016-03-15T05:19:10.701Z,2.14
2016-03-15T05:20:10.672Z,2.14
2016-03-15T05:21:10.706Z,2.21
2016-03-15T05:22:10.646Z,2.18
2016-03-15T05:23:10.633Z,2.2
2016-03-15T05:24:10.699Z,2.18
2016-03-15T05:25:10.811Z,2.17
2016-03-15T05:26:10.719Z,2.21
2016-03-15T05:27:10.692Z,2.21
2016-03-15T05:28:10.709Z,2.23
2016-03-15T05:29:10.587Z,2.16
2016-03-15T05:30:10.558Z,2.12
2016-03-15T05:31:10.561Z,2.1
2016-03-15T05:32:10.548Z,2.1
2016-03-15T05:33:10.551Z,2.07
2016-03-15T05:34:10.538Z,2.12
2016-03-15T05:35:10.900Z,2.09
2016-03-15T05:36:11.106Z,2.12
2016-03-15T05:37:10.671Z,2.2
2016-03-15T05:38:10.721Z,2.09
2016-03-15T05:39:10.676Z,2.05
2016-03-15T05:40:10.679Z,2.12
2016-03-15T05:41:10.572Z,2.12
2016-03-15T05:42:10.622Z,2.02
2016-03-15T05:43:10.702Z,2.09
2016-03-15T05:44:09.987Z,2.05
2016-03-15T05:45:10.568Z,2.14
2016-03-15T05:46:10.492Z,2.07
2016-03-15T05:47:10.495Z,2.09
2016-03-15T05:48:10.497Z,2.07
2016-03-15T05:49:10.485Z,2.09
2016-03-15T05:50:10.487Z,2.09
2016-03-15T05:51:10.490Z,2.14
2016-03-15T05:52:10.462Z,2.17
2016-03-15T05:53:10.448Z,2.23
2016-03-15T05:54:10.467Z,2.07
2016-03-15T05:55:10.454Z,2.09
2016-03-15T05:56:10.456Z,2.18
2016-03-15T05:57:10.443Z,2.1
2016-03-15T05:58:10.446Z,2.18
2016-03-15T05:59:10.433Z,2.06
2016-03-15T06:00:10.436Z,2.14
2016-03-15T06:01:10.423Z,2.06
2016-03-15T06:02:10.425Z,2.14
2016-03-15T06:03:10.413Z,2.18
2016-03-15T06:04:10.416Z,2.14
2016-03-15T06:05:10.418Z,2.18
2016-03-15T06:06:10.405Z,2.2
2016-03-15T06:07:10.402Z,2.16
2016-03-15T06:08:10.389Z,2.06
2016-03-15T06:09:10.377Z,2.17
2016-03-15T06:10:10.333Z,2.21
2016-03-15T06:11:10.320Z,2.23
2016-03-15T06:12:10.296Z,2.2
2016-03-15T06:13:10.293Z,2.17
2016-03-15T06:14:10.290Z,2.12
2016-03-15T06:15:10.271Z,2.16
2016-03-15T06:16:10.268Z,2.16
2016-03-15T06:17:10.268Z,2.16
2016-03-15T06:18:10.268Z,2.21
2016-03-15T06:19:10.253Z,2.16
2016-03-15T06:20:10.237Z,2.2
2016-03-15T06:21:10.254Z,2.2
2016-03-15T06:22:10.224Z,2.17
2016-03-15T06:23:10.225Z,2.18
2016-03-15T06:24:10.212Z,2.16
2016-03-15T06:25:10.197Z,2.27
2016-03-15T06:26:10.199Z,2.16
2016-03-15T06:27:10.202Z,2.18
2016-03-15T06:28:10.189Z,2.24
2016-03-15T06:29:10.192Z,2.28
2016-03-15T06:30:10.195Z,2.18
2016-03-15T06:31:10.025Z,2.21
2016-03-15T06:32:10.200Z,2.31
2016-03-15T06:33:10.171Z,2.21
2016-03-15T06:34:10.189Z,2.25
2016-03-15T06:35:10.240Z,2.3
2016-03-15T06:36:10.179Z,2.27
2016-03-15T06:37:10.167Z,2.28
2016-03-15T06:38:10.153Z,2.25
2016-03-15T06:39:10.141Z,2.27
2016-03-15T06:40:10.143Z,2.3
2016-03-15T06:41:10.161Z,2.25
2016-03-15T06:42:10.133Z,2.27
2016-03-15T06:43:10.135Z,2.35
2016-03-15T06:44:10.139Z,2.31
2016-03-15T06:45:10.141Z,2.35
2016-03-15T06:46:10.113Z,2.43
2016-03-15T06:47:10.130Z,2.41
2016-03-15T06:48:10.149Z,2.45
2016-03-15T06:49:10.121Z,2.39
2016-03-15T06:50:10.107Z,2.45
2016-03-15T06:51:12.126Z,2.43
2016-03-15T06:52:10.096Z,2.46
2016-03-15T06:53:10.881Z,2.45
2016-03-15T06:54:10.884Z,2.43
2016-03-15T06:55:10.105Z,2.46
2016-03-15T06:56:10.295Z,2.53
2016-03-15T06:57:10.298Z,2.59
2016-03-15T06:58:10.317Z,2.64
2016-03-15T06:59:10.225Z,2.57
2016-03-15T07:00:10.290Z,2.61
2016-03-15T07:01:10.215Z,2.54
2016-03-15T07:02:10.218Z,2.57
2016-03-15T07:03:10.190Z,2.63
2016-03-15T07:04:10.192Z,2.71
2016-03-15T07:05:10.164Z,2.64
2016-03-15T07:06:10.135Z,2.6
2016-03-15T07:07:10.278Z,2.64
2016-03-15T07:08:10.207Z,2.6
2016-03-15T07:09:10.210Z,2.61
2016-03-15T07:10:10.196Z,2.6
2016-03-15T07:11:10.277Z,2.6
2016-03-15T07:12:10.093Z,2.59
2016-03-15T07:13:10.189Z,2.64
2016-03-15T07:14:10.285Z,2.71
2016-03-15T07:15:10.179Z,2.63
2016-03-15T07:16:10.448Z,2.64
2016-03-15T07:17:10.075Z,2.57
2016-03-15T07:18:09.999Z,2.66
2016-03-15T07:19:10.002Z,2.6
2016-03-15T07:20:10.004Z,2.56
2016-03-15T07:21:09.992Z,2.61
2016-03-15T07:22:09.994Z,2.61
2016-03-15T07:23:09.981Z,2.64
2016-03-15T07:24:10.000Z,2.61
2016-03-15T07:25:10.003Z,2.61
2016-03-15T07:26:09.989Z,2.59
2016-03-15T07:27:09.977Z,2.6
2016-03-15T07:28:09.980Z,2.59
2016-03-15T07:29:09.966Z,2.61
2016-03-15T07:30:09.953Z,2.66
2016-03-15T07:31:09.956Z,2.64
2016-03-15T07:32:09.958Z,2.61
2016-03-15T07:33:09.977Z,2.57
2016-03-15T07:34:09.949Z,2.57
2016-03-15T07:35:09.951Z,2.63
2016-03-15T07:36:09.939Z,2.57
2016-03-15T07:37:09.925Z,2.66
2016-03-15T07:38:09.927Z,2.64
2016-03-15T07:39:09.931Z,2.64
2016-03-15T07:40:09.933Z,2.56
2016-03-15T07:41:09.920Z,2.59
2016-03-15T07:42:09.923Z,2.59
2016-03-15T07:43:09.910Z,2.66
2016-03-15T07:44:09.912Z,2.6
2016-03-15T07:45:09.916Z,2.61
2016-03-15T07:46:09.903Z,2.61
2016-03-15T07:47:09.905Z,2.6
2016-03-15T07:48:09.893Z,2.66
2016-03-15T07:49:09.879Z,2.61
2016-03-15T07:50:09.882Z,2.6
2016-03-15T07:51:09.884Z,2.6
2016-03-15T07:52:09.872Z,2.6
2016-03-15T07:53:09.875Z,2.59
2016-03-15T07:54:10.128Z,2.6
2016-03-15T07:55:09.864Z,2.6
2016-03-15T07:56:09.867Z,2.64
2016-03-15T07:57:09.697Z,2.6
2016-03-15T07:58:09.856Z,2.6
2016-03-15T07:59:09.859Z,2.71
2016-03-15T08:00:09.846Z,2.63
2016-03-15T08:01:09.850Z,2.66
2016-03-15T08:02:09.899Z,2.6
2016-03-15T08:03:09.855Z,2.77
2016-03-15T08:04:09.857Z,2.63
2016-03-15T08:05:09.829Z,2.66
2016-03-15T08:06:09.675Z,2.78
2016-03-15T08:07:09.818Z,2.64
2016-03-15T08:08:09.821Z,2.78
2016-03-15T08:09:09.807Z,2.74
2016-03-15T08:10:09.811Z,2.74
2016-03-15T08:11:09.813Z,2.81
2016-03-15T08:12:09.801Z,2.77
2016-03-15T08:13:09.804Z,2.79
2016-03-15T08:14:09.806Z,2.78
2016-03-15T08:15:09.809Z,2.82
2016-03-15T08:16:09.812Z,2.92
2016-03-15T08:17:09.782Z,2.81
2016-03-15T08:18:09.785Z,2.87
2016-03-15T08:19:09.773Z,3
2016-03-15T08:20:09.790Z,3.06
2016-03-15T08:21:09.779Z,3.02
2016-03-15T08:22:09.765Z,3.06
2016-03-15T08:23:09.768Z,3.05
2016-03-15T08:24:09.756Z,3.18
2016-03-15T08:25:09.758Z,3.26
2016-03-15T08:26:09.760Z,3.26
2016-03-15T08:27:09.747Z,3.33
2016-03-15T08:28:09.750Z,3.31
2016-03-15T08:29:09.752Z,3.35
2016-03-15T08:30:09.756Z,3.48
2016-03-15T08:31:09.789Z,3.45
2016-03-15T08:32:09.744Z,3.52
2016-03-15T08:33:09.733Z,3.58
2016-03-15T08:34:09.719Z,3.6
2016-03-15T08:35:09.721Z,3.54
2016-03-15T08:36:09.756Z,3.62
2016-03-15T08:37:09.727Z,3.69
2016-03-15T08:38:09.730Z,3.72
2016-03-15T08:39:09.733Z,3.76
2016-03-15T08:40:09.719Z,3.83
2016-03-15T08:41:09.722Z,3.79
2016-03-15T08:42:09.710Z,3.8
2016-03-15T08:43:09.712Z,3.93
2016-03-15T08:44:09.699Z,3.91
2016-03-15T08:45:09.702Z,3.86
2016-03-15T08:46:09.704Z,3.94
2016-03-15T08:47:09.692Z,3.98
2016-03-15T08:48:09.695Z,4.02
2016-03-15T08:49:09.698Z,3.91
2016-03-15T08:50:09.685Z,3.97
2016-03-15T08:51:09.703Z,4.02
2016-03-15T08:52:09.689Z,4.02
2016-03-15T08:53:09.692Z,4.04
2016-03-15T08:54:09.586Z,4.02
2016-03-15T08:55:09.681Z,4.11
2016-03-15T08:56:09.685Z,4.08
2016-03-15T08:57:09.672Z,4.05
2016-03-15T08:58:09.674Z,4.02
2016-03-15T08:59:09.677Z,4.14
2016-03-15T09:00:09.680Z,4.14
2016-03-15T09:01:09.683Z,4.12
2016-03-15T09:02:09.685Z,4.18
2016-03-15T09:03:09.672Z,4.16
2016-03-15T09:04:09.691Z,4.15
2016-03-15T09:05:09.678Z,4.24
2016-03-15T09:06:09.664Z,4.24
2016-03-15T09:07:09.667Z,4.32
2016-03-15T09:08:09.655Z,4.33
2016-03-15T09:09:09.719Z,4.4
2016-03-15T09:10:09.659Z,4.34
2016-03-15T09:11:09.663Z,4.4
2016-03-15T09:12:09.649Z,4.4
2016-03-15T09:13:09.668Z,4.3
2016-03-15T09:14:09.686Z,4.44
2016-03-15T09:15:09.657Z,4.47
2016-03-15T09:16:09.645Z,4.6
2016-03-15T09:17:09.648Z,4.63
2016-03-15T09:18:09.650Z,4.7
2016-03-15T09:19:09.653Z,4.75
2016-03-15T09:20:09.640Z,4.86
2016-03-15T09:21:09.798Z,4.92
2016-03-15T09:22:09.646Z,5.12
2016-03-15T09:23:09.632Z,5
2016-03-15T09:24:09.775Z,5
2016-03-15T09:25:09.498Z,5.12
2016-03-15T09:26:09.640Z,5.07
2016-03-15T09:27:09.642Z,5.09
2016-03-15T09:28:09.661Z,5.24
2016-03-15T09:29:09.633Z,5.25
2016-03-15T09:30:09.635Z,5.28
2016-03-15T09:31:09.639Z,5.28
2016-03-15T09:32:09.641Z,5.4
2016-03-15T09:33:09.627Z,5.4
2016-03-15T09:34:09.631Z,5.45
2016-03-15T09:35:09.633Z,5.48
2016-03-15T09:36:09.635Z,5.51
2016-03-15T09:37:10.092Z,5.57
2016-03-15T09:38:09.750Z,5.61
2016-03-15T09:39:09.675Z,5.68
2016-03-15T09:40:09.631Z,5.74
2016-03-15T09:41:09.633Z,5.79
2016-03-15T09:42:09.652Z,5.79
2016-03-15T09:43:09.639Z,5.82
2016-03-15T09:44:09.641Z,5.76
2016-03-15T09:45:09.644Z,5.78
2016-03-15T09:46:09.662Z,5.74
2016-03-15T09:47:09.650Z,5.79
2016-03-15T09:48:09.637Z,5.72
2016-03-15T09:49:09.639Z,5.74
2016-03-15T09:50:09.643Z,5.71
2016-03-15T09:51:09.645Z,5.78
2016-03-15T09:52:09.631Z,5.81
2016-03-15T09:53:09.635Z,5.85
2016-03-15T09:54:09.762Z,5.9
2016-03-15T09:55:09.640Z,5.97
2016-03-15T09:56:09.643Z,6
2016-03-15T09:57:09.630Z,6.19
2016-03-15T09:58:09.648Z,6.14
2016-03-15T09:59:09.651Z,6.09
2016-03-15T10:00:09.638Z,6.12
2016-03-15T10:01:08.906Z,6.28
2016-03-15T10:02:10.175Z,6.21
2016-03-15T10:03:09.661Z,6.28
2016-03-15T10:04:10.633Z,6.28
2016-03-15T10:05:09.652Z,6.15
2016-03-15T10:06:09.497Z,6.06
2016-03-15T10:07:09.641Z,6
2016-03-15T10:08:08.910Z,5.97
2016-03-15T10:09:09.651Z,5.93
2016-03-15T10:10:09.654Z,5.82
2016-03-15T10:11:09.704Z,5.82
2016-03-15T10:12:09.660Z,5.75
2016-03-15T10:13:09.662Z,5.72
2016-03-15T10:14:09.649Z,5.74
2016-03-15T10:15:09.652Z,5.75
2016-03-15T10:16:09.654Z,5.71
2016-03-15T10:17:09.657Z,5.67
2016-03-15T10:18:09.660Z,5.74
2016-03-15T10:19:09.662Z,5.67
2016-03-15T10:20:09.665Z,5.51
2016-03-15T10:21:09.668Z,5.54
2016-03-15T10:22:09.686Z,5.48
2016-03-15T10:23:09.658Z,5.4
2016-03-15T10:24:09.676Z,5.49
2016-03-15T10:25:09.679Z,5.39
2016-03-15T10:26:09.697Z,5.31
2016-03-15T10:27:09.669Z,5.24
2016-03-15T10:28:09.703Z,5.27
2016-03-15T10:29:09.658Z,5.31
2016-03-15T10:30:09.677Z,5.3
2016-03-15T10:31:09.680Z,5.24
2016-03-15T10:32:09.666Z,5.25
2016-03-15T10:33:09.669Z,5.36
2016-03-15T10:34:09.703Z,5.3
2016-03-15T10:35:09.690Z,5.24
2016-03-15T10:36:09.646Z,5.36
2016-03-15T10:37:09.852Z,5.38
2016-03-15T10:38:09.666Z,5.39
2016-03-15T10:39:09.701Z,5.53
2016-03-15T10:40:09.735Z,5.46
2016-03-15T10:41:09.675Z,5.57
2016-03-15T10:42:09.693Z,5.71
2016-03-15T10:43:09.680Z,5.67
2016-03-15T10:44:09.683Z,5.74
2016-03-15T10:45:09.685Z,5.79
2016-03-15T10:46:09.673Z,5.72
2016-03-15T10:47:09.660Z,5.81
2016-03-15T10:48:09.662Z,5.91
2016-03-15T10:49:09.760Z,5.9
2016-03-15T10:50:09.668Z,5.96
2016-03-15T10:51:09.670Z,5.97
2016-03-15T10:52:09.736Z,6
2016-03-15T10:53:09.692Z,6
2016-03-15T10:54:09.678Z,6.03
2016-03-15T10:55:09.712Z,6.04
2016-03-15T10:56:09.668Z,6.06
2016-03-15T10:57:09.687Z,6.09
2016-03-15T10:58:09.673Z,6.11
2016-03-15T10:59:09.708Z,5.99
2016-03-15T11:00:09.742Z,6.06
2016-03-15T11:01:09.681Z,6.03
2016-03-15T11:02:09.684Z,6.04
2016-03-15T11:03:09.702Z,6.06
2016-03-15T11:04:09.675Z,6.08
2016-03-15T11:05:09.693Z,5.91
2016-03-15T11:06:09.320Z,5.83
2016-03-15T11:07:09.698Z,5.86
2016-03-15T11:08:09.685Z,5.76
2016-03-15T11:09:09.688Z,5.74
2016-03-15T11:10:09.690Z,5.78
2016-03-15T11:11:09.693Z,5.74
2016-03-15T11:12:09.696Z,5.67
2016-03-15T11:13:09.683Z,5.71
2016-03-15T11:14:09.686Z,5.51
2016-03-15T11:15:09.688Z,5.51
2016-03-15T11:16:09.675Z,5.49
2016-03-15T11:17:09.678Z,5.51
2016-03-15T11:18:09.681Z,5.53
2016-03-15T11:19:09.792Z,5.43
2016-03-15T11:20:09.687Z,5.51
2016-03-15T11:21:09.798Z,5.51
2016-03-15T11:22:09.785Z,5.51
2016-03-15T11:23:09.679Z,5.53
2016-03-15T11:24:09.712Z,5.49
2016-03-15T11:25:09.700Z,5.51
2016-03-15T11:26:09.686Z,5.53
2016-03-15T11:27:09.689Z,5.51
2016-03-15T11:28:09.676Z,5.57
2016-03-15T11:29:09.679Z,5.51
2016-03-15T11:30:09.681Z,5.43
2016-03-15T11:31:09.809Z,5.48
2016-03-15T11:32:09.703Z,5.42
2016-03-15T11:33:09.689Z,5.43
2016-03-15T11:34:09.692Z,5.48
2016-03-15T11:35:09.680Z,5.46
2016-03-15T11:36:09.682Z,5.48
2016-03-15T11:37:09.701Z,5.48
2016-03-15T11:38:09.688Z,5.42
2016-03-15T11:39:09.691Z,5.42
2016-03-15T11:40:09.678Z,5.38
2016-03-15T11:41:09.680Z,5.4
2016-03-15T11:42:09.683Z,5.45
2016-03-15T11:43:09.685Z,5.49
2016-03-15T11:44:09.672Z,5.49
2016-03-15T11:45:09.675Z,5.46
2016-03-15T11:46:09.677Z,5.49
2016-03-15T11:47:09.680Z,5.54
2016-03-15T11:48:09.683Z,5.48
2016-03-15T11:49:09.670Z,5.51
2016-03-15T11:50:09.657Z,5.54
2016-03-15T11:51:09.676Z,5.56
2016-03-15T11:52:09.678Z,5.71
2016-03-15T11:53:09.666Z,5.6
2016-03-15T11:54:09.699Z,5.57
2016-03-15T11:55:09.670Z,5.53
2016-03-15T11:56:09.674Z,5.56
2016-03-15T11:57:09.676Z,5.68
2016-03-15T11:58:09.678Z,5.64
2016-03-15T11:59:09.666Z,5.75
2016-03-15T12:00:09.684Z,5.76
2016-03-15T12:01:09.672Z,5.76
2016-03-15T12:02:09.689Z,5.83
2016-03-15T12:03:09.677Z,5.85
2016-03-15T12:04:09.664Z,5.78
2016-03-15T12:05:09.666Z,5.9
2016-03-15T12:06:09.513Z,5.99
2016-03-15T12:07:09.734Z,5.94
2016-03-15T12:08:09.674Z,5.9
2016-03-15T12:09:09.678Z,5.82
2016-03-15T12:10:09.696Z,5.83
2016-03-15T12:11:09.666Z,5.81
2016-03-15T12:12:09.686Z,5.72
2016-03-15T12:13:10.297Z,5.68
2016-03-15T12:14:09.690Z,5.74
2016-03-15T12:15:09.693Z,5.76
2016-03-15T12:16:09.680Z,5.65
2016-03-15T12:17:10.058Z,5.58
2016-03-15T12:18:10.373Z,5.57
2016-03-15T12:19:10.485Z,5.57
2016-03-15T12:20:09.879Z,5.49
2016-03-15T12:21:09.756Z,5.54
2016-03-15T12:22:09.274Z,5.51
2016-03-15T12:23:09.715Z,5.42
2016-03-15T12:24:09.779Z,5.46
2016-03-15T12:25:09.908Z,5.33
2016-03-15T12:26:09.832Z,5.31
2016-03-15T12:27:09.912Z,5.3
2016-03-15T12:28:09.745Z,5.17
2016-03-15T12:29:09.918Z,5.18
2016-03-15T12:30:09.858Z,5.18
2016-03-15T12:31:09.799Z,5.1
2016-03-15T12:32:09.848Z,5.02
2016-03-15T12:33:09.773Z,5
2016-03-15T12:34:09.822Z,4.94
2016-03-15T12:35:09.841Z,4.94
2016-03-15T12:36:09.812Z,4.97
2016-03-15T12:37:09.830Z,4.94
2016-03-15T12:38:09.911Z,5.03
2016-03-15T12:39:09.852Z,5
2016-03-15T12:40:09.854Z,4.97
2016-03-15T12:41:09.780Z,4.94
2016-03-15T12:42:09.907Z,4.97
2016-03-15T12:43:09.830Z,4.92
2016-03-15T12:44:09.959Z,4.85
2016-03-15T12:45:10.024Z,4.85
2016-03-15T12:46:09.901Z,4.86
2016-03-15T12:47:09.749Z,4.84
2016-03-15T12:48:09.782Z,5.03
2016-03-15T12:49:09.769Z,4.86
2016-03-15T12:50:09.897Z,4.97
2016-03-15T12:51:09.774Z,4.99
2016-03-15T12:52:09.902Z,4.99
2016-03-15T12:53:09.889Z,4.97
2016-03-15T12:54:09.657Z,4.92
2016-03-15T12:55:09.659Z,4.99
2016-03-15T12:56:09.648Z,4.96
2016-03-15T12:57:10.291Z,4.85
2016-03-15T12:58:10.106Z,4.89
2016-03-15T12:59:09.921Z,4.85
2016-03-15T13:00:09.846Z,4.77
2016-03-15T13:01:09.895Z,4.82
2016-03-15T13:02:09.851Z,4.8
2016-03-15T13:03:09.697Z,4.75
2016-03-15T13:04:09.716Z,4.88
2016-03-15T13:05:09.859Z,4.78
2016-03-15T13:06:09.675Z,4.82
2016-03-15T13:07:09.974Z,4.92
2016-03-15T13:08:09.866Z,4.92
2016-03-15T13:09:09.760Z,4.94
2016-03-15T13:10:09.919Z,5.03
2016-03-15T13:11:09.515Z,5.12
2016-03-15T13:12:09.706Z,4.96
2016-03-15T13:13:09.833Z,4.91
2016-03-15T13:14:09.868Z,4.96
2016-03-15T13:15:09.839Z,4.97
2016-03-15T13:16:09.591Z,5.06
2016-03-15T13:17:09.813Z,4.89
2016-03-15T13:18:09.879Z,4.89
2016-03-15T13:19:09.677Z,4.89
2016-03-15T13:20:09.649Z,4.97
2016-03-15T13:21:09.683Z,4.92
2016-03-15T13:22:09.671Z,4.97